sensor_id;sensor_type;location;lat;lon;timestamp;temperature;humidity
4566;DHT22;2295;51.050;14.608;2024-01-30T00:00:08;0.90;99.90
4566;DHT22;2295;51.050;14.608;2024-01-30T00:02:37;1.00;99.90
4566;DHT22;2295;51.050;14.608;2024-01-30T00:05:05;1.00;99.90
4566;DHT22;2295;51.050;14.608;2024-01-30T00:07:34;1.10;99.90
4566;DHT22;2295;51.050;14.608;2024-01-30T00:10:04;1.00;99.90
4566;DHT22;2295;51.050;14.608;2024-01-30T00:12:33;1.00;99.90
4566;DHT22;2295;51.050;14.608;2024-01-30T00:15:02;0.90;99.90
4566;DHT22;2295;51.050;14.608;2024-01-30T00:17:31;1.00;99.90
4566;DHT22;2295;51.050;14.608;2024-01-30T00:19:59;1.00;99.90
4566;DHT22;2295;51.050;14.608;2024-01-30T00:22:28;0.90;99.90
4566;DHT22;2295;51.050;14.608;2024-01-30T00:24:57;0.90;99.90
4566;DHT22;2295;51.050;14.608;2024-01-30T00:27:27;0.80;99.90
4566;DHT22;2295;51.050;14.608;2024-01-30T00:29:55;0.70;99.90
4566;DHT22;2295;51.050;14.608;2024-01-30T00:32:24;0.60;99.90
4566;DHT22;2295;51.050;14.608;2024-01-30T00:34:52;0.50;99.90
4566;DHT22;2295;51.050;14.608;2024-01-30T00:37:21;0.50;99.90
4566;DHT22;2295;51.050;14.608;2024-01-30T00:39:50;0.60;99.90
4566;DHT22;2295;51.050;14.608;2024-01-30T00:42:18;0.60;99.90
4566;DHT22;2295;51.050;14.608;2024-01-30T00:44:48;0.60;99.90
4566;DHT22;2295;51.050;14.608;2024-01-30T00:47:20;0.50;99.90
4566;DHT22;2295;51.050;14.608;2024-01-30T00:49:48;0.40;99.90
4566;DHT22;2295;51.050;14.608;2024-01-30T00:52:17;0.40;99.90
4566;DHT22;2295;51.050;14.608;2024-01-30T00:54:45;0.40;99.90
4566;DHT22;2295;51.050;14.608;2024-01-30T00:57:14;0.30;99.90
4566;DHT22;2295;51.050;14.608;2024-01-30T00:59:42;0.30;99.90
4566;DHT22;2295;51.050;14.608;2024-01-30T01:02:12;0.40;99.90
4566;DHT22;2295;51.050;14.608;2024-01-30T01:04:42;0.60;99.90
4566;DHT22;2295;51.050;14.608;2024-01-30T01:07:11;0.60;99.90
4566;DHT22;2295;51.050;14.608;2024-01-30T01:09:39;0.50;99.90
4566;DHT22;2295;51.050;14.608;2024-01-30T01:12:08;0.40;99.90
4566;DHT22;2295;51.050;14.608;2024-01-30T01:14:36;0.30;99.90
4566;DHT22;2295;51.050;14.608;2024-01-30T01:17:05;0.20;99.90
4566;DHT22;2295;51.050;14.608;2024-01-30T01:19:35;0.10;99.90
4566;DHT22;2295;51.050;14.608;2024-01-30T01:22:03;0.10;99.90
4566;DHT22;2295;51.050;14.608;2024-01-30T01:24:32;0.20;99.90
4566;DHT22;2295;51.050;14.608;2024-01-30T01:27:01;0.40;99.90
4566;DHT22;2295;51.050;14.608;2024-01-30T01:29:29;0.40;99.90
4566;DHT22;2295;51.050;14.608;2024-01-30T01:31:58;0.40;99.90
4566;DHT22;2295;51.050;14.608;2024-01-30T01:34:27;0.40;99.90
4566;DHT22;2295;51.050;14.608;2024-01-30T01:36:58;0.30;99.90
4566;DHT22;2295;51.050;14.608;2024-01-30T01:39:26;0.40;99.90
4566;DHT22;2295;51.050;14.608;2024-01-30T01:41:55;0.30;99.90
4566;DHT22;2295;51.050;14.608;2024-01-30T01:44:23;0.40;99.90
4566;DHT22;2295;51.050;14.608;2024-01-30T01:46:52;0.50;99.90
4566;DHT22;2295;51.050;14.608;2024-01-30T01:49:23;0.70;99.90
4566;DHT22;2295;51.050;14.608;2024-01-30T01:51:54;0.80;99.90
4566;DHT22;2295;51.050;14.608;2024-01-30T01:54:25;0.80;99.90
4566;DHT22;2295;51.050;14.608;2024-01-30T01:56:55;0.80;99.90
4566;DHT22;2295;51.050;14.608;2024-01-30T01:59:24;0.80;99.90
4566;DHT22;2295;51.050;14.608;2024-01-30T02:01:54;0.90;99.90
4566;DHT22;2295;51.050;14.608;2024-01-30T02:04:24;0.90;99.90
4566;DHT22;2295;51.050;14.608;2024-01-30T02:06:52;0.90;99.90
4566;DHT22;2295;51.050;14.608;2024-01-30T02:09:21;0.90;99.90
4566;DHT22;2295;51.050;14.608;2024-01-30T02:11:51;0.70;99.90
4566;DHT22;2295;51.050;14.608;2024-01-30T02:14:23;0.70;99.90
4566;DHT22;2295;51.050;14.608;2024-01-30T02:16:54;0.80;99.90
4566;DHT22;2295;51.050;14.608;2024-01-30T02:19:23;0.90;99.90
4566;DHT22;2295;51.050;14.608;2024-01-30T02:21:53;1.00;99.90
4566;DHT22;2295;51.050;14.608;2024-01-30T02:24:22;1.00;99.90
4566;DHT22;2295;51.050;14.608;2024-01-30T02:26:50;0.90;99.90
4566;DHT22;2295;51.050;14.608;2024-01-30T02:29:19;0.90;99.90
4566;DHT22;2295;51.050;14.608;2024-01-30T02:31:48;0.90;99.90
4566;DHT22;2295;51.050;14.608;2024-01-30T02:34:16;1.00;99.90
4566;DHT22;2295;51.050;14.608;2024-01-30T02:36:49;1.10;99.90
4566;DHT22;2295;51.050;14.608;2024-01-30T02:39:19;1.10;99.90
4566;DHT22;2295;51.050;14.608;2024-01-30T02:41:47;1.00;99.90
4566;DHT22;2295;51.050;14.608;2024-01-30T02:44:16;1.00;99.90
4566;DHT22;2295;51.050;14.608;2024-01-30T02:46:44;1.00;99.90
4566;DHT22;2295;51.050;14.608;2024-01-30T02:49:12;1.00;99.90
4566;DHT22;2295;51.050;14.608;2024-01-30T02:51:41;1.10;99.90
4566;DHT22;2295;51.050;14.608;2024-01-30T02:54:10;1.10;99.90
4566;DHT22;2295;51.050;14.608;2024-01-30T02:56:39;1.00;99.90
4566;DHT22;2295;51.050;14.608;2024-01-30T02:59:08;1.00;99.90
4566;DHT22;2295;51.050;14.608;2024-01-30T03:01:42;1.00;99.90
4566;DHT22;2295;51.050;14.608;2024-01-30T03:04:11;1.10;99.90
4566;DHT22;2295;51.050;14.608;2024-01-30T03:06:45;1.10;99.90
4566;DHT22;2295;51.050;14.608;2024-01-30T03:09:16;1.20;99.90
4566;DHT22;2295;51.050;14.608;2024-01-30T03:11:46;1.20;99.90
4566;DHT22;2295;51.050;14.608;2024-01-30T03:14:15;1.20;99.90
4566;DHT22;2295;51.050;14.608;2024-01-30T03:16:43;1.20;99.90
4566;DHT22;2295;51.050;14.608;2024-01-30T03:19:12;1.20;99.90
4566;DHT22;2295;51.050;14.608;2024-01-30T03:21:43;1.10;99.90
4566;DHT22;2295;51.050;14.608;2024-01-30T03:24:12;1.10;99.90
4566;DHT22;2295;51.050;14.608;2024-01-30T03:26:41;1.10;99.90
4566;DHT22;2295;51.050;14.608;2024-01-30T03:29:11;1.10;99.90
4566;DHT22;2295;51.050;14.608;2024-01-30T03:31:39;1.00;99.90
4566;DHT22;2295;51.050;14.608;2024-01-30T03:34:07;1.00;99.90
4566;DHT22;2295;51.050;14.608;2024-01-30T03:36:36;1.00;99.90
4566;DHT22;2295;51.050;14.608;2024-01-30T03:39:05;1.00;99.90
4566;DHT22;2295;51.050;14.608;2024-01-30T03:41:33;0.90;99.90
4566;DHT22;2295;51.050;14.608;2024-01-30T03:44:02;0.90;99.90
4566;DHT22;2295;51.050;14.608;2024-01-30T03:46:31;0.90;99.90
4566;DHT22;2295;51.050;14.608;2024-01-30T03:49:00;0.80;99.90
4566;DHT22;2295;51.050;14.608;2024-01-30T03:51:28;0.90;99.90
4566;DHT22;2295;51.050;14.608;2024-01-30T03:53:57;0.90;99.90
4566;DHT22;2295;51.050;14.608;2024-01-30T03:56:25;1.00;99.90
4566;DHT22;2295;51.050;14.608;2024-01-30T03:58:54;1.00;99.90
4566;DHT22;2295;51.050;14.608;2024-01-30T04:01:31;1.00;99.90
4566;DHT22;2295;51.050;14.608;2024-01-30T04:04:00;0.90;99.90
4566;DHT22;2295;51.050;14.608;2024-01-30T04:06:28;0.90;99.90
4566;DHT22;2295;51.050;14.608;2024-01-30T04:08:57;1.00;99.90
4566;DHT22;2295;51.050;14.608;2024-01-30T04:11:25;0.90;99.90
4566;DHT22;2295;51.050;14.608;2024-01-30T04:13:54;1.00;99.90
4566;DHT22;2295;51.050;14.608;2024-01-30T04:16:22;1.00;99.90
4566;DHT22;2295;51.050;14.608;2024-01-30T04:18:52;0.90;99.90
4566;DHT22;2295;51.050;14.608;2024-01-30T04:21:21;0.90;99.90
4566;DHT22;2295;51.050;14.608;2024-01-30T04:23:51;0.90;99.90
4566;DHT22;2295;51.050;14.608;2024-01-30T04:26:19;1.00;99.90
4566;DHT22;2295;51.050;14.608;2024-01-30T04:28:48;1.00;99.90
4566;DHT22;2295;51.050;14.608;2024-01-30T04:31:16;1.10;99.90
4566;DHT22;2295;51.050;14.608;2024-01-30T04:33:45;1.10;99.90
4566;DHT22;2295;51.050;14.608;2024-01-30T04:36:15;1.10;99.90
4566;DHT22;2295;51.050;14.608;2024-01-30T04:38:43;1.00;99.90
4566;DHT22;2295;51.050;14.608;2024-01-30T04:41:12;1.10;99.90
4566;DHT22;2295;51.050;14.608;2024-01-30T04:43:40;1.10;99.90
4566;DHT22;2295;51.050;14.608;2024-01-30T04:46:09;1.00;99.90
4566;DHT22;2295;51.050;14.608;2024-01-30T04:48:37;1.00;99.90
4566;DHT22;2295;51.050;14.608;2024-01-30T04:51:06;1.00;99.90
4566;DHT22;2295;51.050;14.608;2024-01-30T04:53:36;0.90;99.90
4566;DHT22;2295;51.050;14.608;2024-01-30T04:56:05;0.90;99.90
4566;DHT22;2295;51.050;14.608;2024-01-30T04:58:34;0.90;99.90
4566;DHT22;2295;51.050;14.608;2024-01-30T05:01:02;0.90;99.90
4566;DHT22;2295;51.050;14.608;2024-01-30T05:03:33;1.00;99.90
4566;DHT22;2295;51.050;14.608;2024-01-30T05:06:01;1.10;99.90
4566;DHT22;2295;51.050;14.608;2024-01-30T05:08:31;1.10;99.90
4566;DHT22;2295;51.050;14.608;2024-01-30T05:11:01;1.20;99.90
4566;DHT22;2295;51.050;14.608;2024-01-30T05:13:31;1.20;99.90
4566;DHT22;2295;51.050;14.608;2024-01-30T05:16:02;1.20;99.90
4566;DHT22;2295;51.050;14.608;2024-01-30T05:18:36;1.20;99.90
4566;DHT22;2295;51.050;14.608;2024-01-30T05:21:05;1.20;99.90
4566;DHT22;2295;51.050;14.608;2024-01-30T05:23:34;1.10;99.90
4566;DHT22;2295;51.050;14.608;2024-01-30T05:26:12;1.20;99.90
4566;DHT22;2295;51.050;14.608;2024-01-30T05:28:41;1.10;99.90
4566;DHT22;2295;51.050;14.608;2024-01-30T05:31:11;1.00;99.90
4566;DHT22;2295;51.050;14.608;2024-01-30T05:33:40;0.90;99.90
4566;DHT22;2295;51.050;14.608;2024-01-30T05:36:11;0.90;99.90
4566;DHT22;2295;51.050;14.608;2024-01-30T05:38:40;0.90;99.90
4566;DHT22;2295;51.050;14.608;2024-01-30T05:41:09;1.00;99.90
4566;DHT22;2295;51.050;14.608;2024-01-30T05:43:42;1.00;99.90
4566;DHT22;2295;51.050;14.608;2024-01-30T05:46:10;1.00;99.90
4566;DHT22;2295;51.050;14.608;2024-01-30T05:48:41;1.00;99.90
4566;DHT22;2295;51.050;14.608;2024-01-30T05:51:09;1.10;99.90
4566;DHT22;2295;51.050;14.608;2024-01-30T05:53:38;1.10;99.90
4566;DHT22;2295;51.050;14.608;2024-01-30T05:56:09;1.10;99.90
4566;DHT22;2295;51.050;14.608;2024-01-30T05:58:38;1.10;99.90
4566;DHT22;2295;51.050;14.608;2024-01-30T06:01:08;1.10;99.90
4566;DHT22;2295;51.050;14.608;2024-01-30T06:03:37;1.10;99.90
4566;DHT22;2295;51.050;14.608;2024-01-30T06:06:06;1.10;99.90
4566;DHT22;2295;51.050;14.608;2024-01-30T06:08:35;1.10;99.90
4566;DHT22;2295;51.050;14.608;2024-01-30T06:11:03;1.10;99.90
4566;DHT22;2295;51.050;14.608;2024-01-30T06:13:40;1.00;99.90
4566;DHT22;2295;51.050;14.608;2024-01-30T06:16:10;1.00;99.90
4566;DHT22;2295;51.050;14.608;2024-01-30T06:18:39;0.90;99.90
4566;DHT22;2295;51.050;14.608;2024-01-30T06:21:10;0.80;99.90
4566;DHT22;2295;51.050;14.608;2024-01-30T06:23:39;0.70;99.90
4566;DHT22;2295;51.050;14.608;2024-01-30T06:26:10;0.70;99.90
4566;DHT22;2295;51.050;14.608;2024-01-30T06:28:38;0.70;99.90
4566;DHT22;2295;51.050;14.608;2024-01-30T06:31:06;0.60;99.90
4566;DHT22;2295;51.050;14.608;2024-01-30T06:33:40;0.60;99.90
4566;DHT22;2295;51.050;14.608;2024-01-30T06:36:09;0.60;99.90
4566;DHT22;2295;51.050;14.608;2024-01-30T06:38:37;0.60;99.90
4566;DHT22;2295;51.050;14.608;2024-01-30T06:41:06;0.70;99.90
4566;DHT22;2295;51.050;14.608;2024-01-30T06:43:34;0.70;99.90
4566;DHT22;2295;51.050;14.608;2024-01-30T06:46:03;0.80;99.90
4566;DHT22;2295;51.050;14.608;2024-01-30T06:48:32;0.90;99.90
4566;DHT22;2295;51.050;14.608;2024-01-30T06:51:01;0.80;99.90
4566;DHT22;2295;51.050;14.608;2024-01-30T06:53:30;0.90;99.90
4566;DHT22;2295;51.050;14.608;2024-01-30T06:56:01;1.00;99.90
4566;DHT22;2295;51.050;14.608;2024-01-30T06:58:30;1.00;99.90
4566;DHT22;2295;51.050;14.608;2024-01-30T07:00:59;1.00;99.90
4566;DHT22;2295;51.050;14.608;2024-01-30T07:03:29;1.00;99.90
4566;DHT22;2295;51.050;14.608;2024-01-30T07:05:57;0.90;99.90
4566;DHT22;2295;51.050;14.608;2024-01-30T07:08:27;0.90;99.90
4566;DHT22;2295;51.050;14.608;2024-01-30T07:10:55;0.90;99.90
4566;DHT22;2295;51.050;14.608;2024-01-30T07:13:27;1.00;99.90
4566;DHT22;2295;51.050;14.608;2024-01-30T07:15:56;0.90;99.90
4566;DHT22;2295;51.050;14.608;2024-01-30T07:18:27;0.90;99.90
4566;DHT22;2295;51.050;14.608;2024-01-30T07:20:55;1.00;99.90
4566;DHT22;2295;51.050;14.608;2024-01-30T07:23:24;1.00;99.90
4566;DHT22;2295;51.050;14.608;2024-01-30T07:25:53;1.00;99.90
4566;DHT22;2295;51.050;14.608;2024-01-30T07:28:22;1.00;99.90
4566;DHT22;2295;51.050;14.608;2024-01-30T07:30:51;1.10;99.90
4566;DHT22;2295;51.050;14.608;2024-01-30T07:33:19;1.10;99.90
4566;DHT22;2295;51.050;14.608;2024-01-30T07:35:48;1.10;99.90
4566;DHT22;2295;51.050;14.608;2024-01-30T07:38:16;1.20;99.90
4566;DHT22;2295;51.050;14.608;2024-01-30T07:40:44;1.30;99.90
4566;DHT22;2295;51.050;14.608;2024-01-30T07:43:14;1.30;99.90
4566;DHT22;2295;51.050;14.608;2024-01-30T07:45:42;1.30;99.90
4566;DHT22;2295;51.050;14.608;2024-01-30T07:48:11;1.40;99.90
4566;DHT22;2295;51.050;14.608;2024-01-30T07:50:41;1.40;99.90
4566;DHT22;2295;51.050;14.608;2024-01-30T07:53:09;1.40;99.90
4566;DHT22;2295;51.050;14.608;2024-01-30T07:55:38;1.50;99.90
4566;DHT22;2295;51.050;14.608;2024-01-30T07:58:06;1.50;99.90
4566;DHT22;2295;51.050;14.608;2024-01-30T08:00:36;1.60;99.90
4566;DHT22;2295;51.050;14.608;2024-01-30T08:03:04;1.70;99.90
4566;DHT22;2295;51.050;14.608;2024-01-30T08:05:33;1.70;99.90
4566;DHT22;2295;51.050;14.608;2024-01-30T08:08:01;1.80;99.90
4566;DHT22;2295;51.050;14.608;2024-01-30T08:10:30;1.90;99.90
4566;DHT22;2295;51.050;14.608;2024-01-30T08:13:01;2.00;99.90
4566;DHT22;2295;51.050;14.608;2024-01-30T08:15:29;2.10;99.90
4566;DHT22;2295;51.050;14.608;2024-01-30T08:17:59;2.30;99.90
4566;DHT22;2295;51.050;14.608;2024-01-30T08:20:31;2.40;99.90
4566;DHT22;2295;51.050;14.608;2024-01-30T08:22:59;2.50;99.90
4566;DHT22;2295;51.050;14.608;2024-01-30T08:25:28;2.60;99.90
4566;DHT22;2295;51.050;14.608;2024-01-30T08:27:57;2.70;99.90
4566;DHT22;2295;51.050;14.608;2024-01-30T08:30:25;2.80;99.90
4566;DHT22;2295;51.050;14.608;2024-01-30T08:32:54;2.90;99.90
4566;DHT22;2295;51.050;14.608;2024-01-30T08:35:23;3.20;99.90
4566;DHT22;2295;51.050;14.608;2024-01-30T08:37:52;3.60;99.90
4566;DHT22;2295;51.050;14.608;2024-01-30T08:40:21;3.90;99.90
4566;DHT22;2295;51.050;14.608;2024-01-30T08:42:49;4.10;99.90
4566;DHT22;2295;51.050;14.608;2024-01-30T08:45:18;4.40;99.90
4566;DHT22;2295;51.050;14.608;2024-01-30T08:47:46;4.50;99.90
4566;DHT22;2295;51.050;14.608;2024-01-30T08:50:15;4.20;99.90
4566;DHT22;2295;51.050;14.608;2024-01-30T08:52:45;4.00;99.90
4566;DHT22;2295;51.050;14.608;2024-01-30T08:55:16;3.80;99.90
4566;DHT22;2295;51.050;14.608;2024-01-30T08:57:45;3.80;99.90
4566;DHT22;2295;51.050;14.608;2024-01-30T09:00:14;3.80;99.90
4566;DHT22;2295;51.050;14.608;2024-01-30T09:02:43;3.80;99.90
4566;DHT22;2295;51.050;14.608;2024-01-30T09:05:12;3.80;99.90
4566;DHT22;2295;51.050;14.608;2024-01-30T09:07:40;3.90;99.90
4566;DHT22;2295;51.050;14.608;2024-01-30T09:10:14;4.00;99.90
4566;DHT22;2295;51.050;14.608;2024-01-30T09:12:47;4.00;99.90
4566;DHT22;2295;51.050;14.608;2024-01-30T09:15:16;4.00;99.90
4566;DHT22;2295;51.050;14.608;2024-01-30T09:17:45;4.10;99.90
4566;DHT22;2295;51.050;14.608;2024-01-30T09:20:13;4.10;99.90
4566;DHT22;2295;51.050;14.608;2024-01-30T09:22:42;4.10;99.90
4566;DHT22;2295;51.050;14.608;2024-01-30T09:25:11;4.20;99.90
4566;DHT22;2295;51.050;14.608;2024-01-30T09:27:41;4.20;99.90
4566;DHT22;2295;51.050;14.608;2024-01-30T09:30:09;4.20;99.90
4566;DHT22;2295;51.050;14.608;2024-01-30T09:32:39;4.20;99.90
4566;DHT22;2295;51.050;14.608;2024-01-30T09:35:08;4.20;99.90
4566;DHT22;2295;51.050;14.608;2024-01-30T09:37:37;4.20;99.90
4566;DHT22;2295;51.050;14.608;2024-01-30T09:40:07;4.30;99.90
4566;DHT22;2295;51.050;14.608;2024-01-30T09:42:36;4.30;99.90
4566;DHT22;2295;51.050;14.608;2024-01-30T09:45:08;4.20;99.90
4566;DHT22;2295;51.050;14.608;2024-01-30T09:47:41;4.10;99.90
4566;DHT22;2295;51.050;14.608;2024-01-30T09:50:11;4.10;99.90
4566;DHT22;2295;51.050;14.608;2024-01-30T09:52:40;4.10;99.90
4566;DHT22;2295;51.050;14.608;2024-01-30T09:55:09;4.10;99.90
4566;DHT22;2295;51.050;14.608;2024-01-30T09:57:41;4.10;99.90
4566;DHT22;2295;51.050;14.608;2024-01-30T10:00:15;4.10;99.90
4566;DHT22;2295;51.050;14.608;2024-01-30T10:02:43;4.20;99.90
4566;DHT22;2295;51.050;14.608;2024-01-30T10:05:15;4.20;99.90
4566;DHT22;2295;51.050;14.608;2024-01-30T10:07:56;4.20;99.90
4566;DHT22;2295;51.050;14.608;2024-01-30T10:10:26;4.20;99.90
4566;DHT22;2295;51.050;14.608;2024-01-30T10:12:54;4.30;99.90
4566;DHT22;2295;51.050;14.608;2024-01-30T10:15:26;4.30;99.90
4566;DHT22;2295;51.050;14.608;2024-01-30T10:17:55;4.40;99.90
4566;DHT22;2295;51.050;14.608;2024-01-30T10:20:25;4.40;99.90
4566;DHT22;2295;51.050;14.608;2024-01-30T10:22:53;4.40;99.90
4566;DHT22;2295;51.050;14.608;2024-01-30T10:25:22;4.50;99.90
4566;DHT22;2295;51.050;14.608;2024-01-30T10:27:53;4.60;99.90
4566;DHT22;2295;51.050;14.608;2024-01-30T10:30:23;4.70;99.90
4566;DHT22;2295;51.050;14.608;2024-01-30T10:32:55;4.70;99.90
4566;DHT22;2295;51.050;14.608;2024-01-30T10:35:24;4.80;99.90
4566;DHT22;2295;51.050;14.608;2024-01-30T10:37:58;4.80;99.90
4566;DHT22;2295;51.050;14.608;2024-01-30T10:40:28;4.90;99.90
4566;DHT22;2295;51.050;14.608;2024-01-30T10:43:00;5.00;99.90
4566;DHT22;2295;51.050;14.608;2024-01-30T10:45:35;5.10;99.90
4566;DHT22;2295;51.050;14.608;2024-01-30T10:48:05;5.10;99.90
4566;DHT22;2295;51.050;14.608;2024-01-30T10:50:35;5.10;99.90
4566;DHT22;2295;51.050;14.608;2024-01-30T10:53:18;5.10;99.90
4566;DHT22;2295;51.050;14.608;2024-01-30T10:55:47;5.10;99.90
4566;DHT22;2295;51.050;14.608;2024-01-30T10:58:16;4.90;99.90
4566;DHT22;2295;51.050;14.608;2024-01-30T11:00:46;4.80;99.90
4566;DHT22;2295;51.050;14.608;2024-01-30T11:03:16;4.70;99.90
4566;DHT22;2295;51.050;14.608;2024-01-30T11:05:49;4.80;99.90
4566;DHT22;2295;51.050;14.608;2024-01-30T11:08:27;4.90;99.90
4566;DHT22;2295;51.050;14.608;2024-01-30T11:10:56;5.00;99.90
4566;DHT22;2295;51.050;14.608;2024-01-30T11:13:27;5.10;99.90
4566;DHT22;2295;51.050;14.608;2024-01-30T11:16:02;5.20;99.90
4566;DHT22;2295;51.050;14.608;2024-01-30T11:18:32;5.20;99.90
4566;DHT22;2295;51.050;14.608;2024-01-30T11:21:01;5.30;99.90
4566;DHT22;2295;51.050;14.608;2024-01-30T11:23:33;5.40;99.90
4566;DHT22;2295;51.050;14.608;2024-01-30T11:26:02;5.40;99.90
4566;DHT22;2295;51.050;14.608;2024-01-30T11:28:33;5.40;99.90
4566;DHT22;2295;51.050;14.608;2024-01-30T11:31:07;5.50;99.90
4566;DHT22;2295;51.050;14.608;2024-01-30T11:33:39;5.50;99.90
4566;DHT22;2295;51.050;14.608;2024-01-30T11:36:08;5.50;99.90
4566;DHT22;2295;51.050;14.608;2024-01-30T11:38:38;5.60;99.90
4566;DHT22;2295;51.050;14.608;2024-01-30T11:41:09;5.60;99.90
4566;DHT22;2295;51.050;14.608;2024-01-30T11:43:38;5.60;99.90
4566;DHT22;2295;51.050;14.608;2024-01-30T11:46:14;5.60;99.90
4566;DHT22;2295;51.050;14.608;2024-01-30T11:48:42;5.60;99.90
4566;DHT22;2295;51.050;14.608;2024-01-30T11:51:12;5.60;99.90
4566;DHT22;2295;51.050;14.608;2024-01-30T11:53:41;5.70;99.90
4566;DHT22;2295;51.050;14.608;2024-01-30T11:56:12;5.70;99.90
4566;DHT22;2295;51.050;14.608;2024-01-30T11:58:42;5.70;99.90
4566;DHT22;2295;51.050;14.608;2024-01-30T12:01:13;5.80;99.90
4566;DHT22;2295;51.050;14.608;2024-01-30T12:03:49;5.80;99.90
4566;DHT22;2295;51.050;14.608;2024-01-30T12:06:18;5.70;99.90
4566;DHT22;2295;51.050;14.608;2024-01-30T12:08:56;5.80;99.90
4566;DHT22;2295;51.050;14.608;2024-01-30T12:11:25;5.90;99.90
4566;DHT22;2295;51.050;14.608;2024-01-30T12:13:54;5.90;99.90
4566;DHT22;2295;51.050;14.608;2024-01-30T12:16:29;6.00;99.90
4566;DHT22;2295;51.050;14.608;2024-01-30T12:19:04;6.10;99.90
4566;DHT22;2295;51.050;14.608;2024-01-30T12:21:37;6.20;99.90
4566;DHT22;2295;51.050;14.608;2024-01-30T12:24:09;6.10;99.90
4566;DHT22;2295;51.050;14.608;2024-01-30T12:26:41;6.10;99.90
4566;DHT22;2295;51.050;14.608;2024-01-30T12:29:09;6.00;99.90
4566;DHT22;2295;51.050;14.608;2024-01-30T12:31:42;5.90;99.90
4566;DHT22;2295;51.050;14.608;2024-01-30T12:34:14;5.90;99.90
4566;DHT22;2295;51.050;14.608;2024-01-30T12:36:45;5.90;99.90
4566;DHT22;2295;51.050;14.608;2024-01-30T12:39:15;5.90;99.90
4566;DHT22;2295;51.050;14.608;2024-01-30T12:41:44;6.00;99.90
4566;DHT22;2295;51.050;14.608;2024-01-30T12:44:14;5.90;99.90
4566;DHT22;2295;51.050;14.608;2024-01-30T12:46:49;5.80;99.90
4566;DHT22;2295;51.050;14.608;2024-01-30T12:49:18;5.90;99.90
4566;DHT22;2295;51.050;14.608;2024-01-30T12:51:49;5.90;99.90
4566;DHT22;2295;51.050;14.608;2024-01-30T12:54:18;6.00;99.90
4566;DHT22;2295;51.050;14.608;2024-01-30T12:56:46;6.00;99.90
4566;DHT22;2295;51.050;14.608;2024-01-30T12:59:15;5.90;99.90
4566;DHT22;2295;51.050;14.608;2024-01-30T13:02:00;5.90;99.90
4566;DHT22;2295;51.050;14.608;2024-01-30T13:04:36;5.80;99.90
4566;DHT22;2295;51.050;14.608;2024-01-30T13:07:19;5.60;99.90
4566;DHT22;2295;51.050;14.608;2024-01-30T13:09:47;5.60;99.90
4566;DHT22;2295;51.050;14.608;2024-01-30T13:12:16;5.70;99.90
4566;DHT22;2295;51.050;14.608;2024-01-30T13:14:48;5.70;99.90
4566;DHT22;2295;51.050;14.608;2024-01-30T13:17:18;5.60;99.90
4566;DHT22;2295;51.050;14.608;2024-01-30T13:19:46;5.60;99.90
4566;DHT22;2295;51.050;14.608;2024-01-30T13:22:19;5.60;99.90
4566;DHT22;2295;51.050;14.608;2024-01-30T13:24:48;5.50;99.90
4566;DHT22;2295;51.050;14.608;2024-01-30T13:27:20;5.60;99.90
4566;DHT22;2295;51.050;14.608;2024-01-30T13:30:01;5.40;99.90
4566;DHT22;2295;51.050;14.608;2024-01-30T13:32:51;5.30;99.90
4566;DHT22;2295;51.050;14.608;2024-01-30T13:35:20;5.30;99.90
4566;DHT22;2295;51.050;14.608;2024-01-30T13:37:49;5.30;99.90
4566;DHT22;2295;51.050;14.608;2024-01-30T13:40:18;5.30;99.90
4566;DHT22;2295;51.050;14.608;2024-01-30T13:42:47;5.20;99.90
4566;DHT22;2295;51.050;14.608;2024-01-30T13:45:18;5.20;99.90
4566;DHT22;2295;51.050;14.608;2024-01-30T13:47:55;5.30;99.90
4566;DHT22;2295;51.050;14.608;2024-01-30T13:50:48;5.20;99.90
4566;DHT22;2295;51.050;14.608;2024-01-30T13:53:20;5.10;99.90
4566;DHT22;2295;51.050;14.608;2024-01-30T13:55:55;5.00;99.90
4566;DHT22;2295;51.050;14.608;2024-01-30T13:58:27;4.90;99.90
4566;DHT22;2295;51.050;14.608;2024-01-30T14:01:10;4.90;99.90
4566;DHT22;2295;51.050;14.608;2024-01-30T14:03:41;4.80;99.90
4566;DHT22;2295;51.050;14.608;2024-01-30T14:06:15;4.80;99.90
4566;DHT22;2295;51.050;14.608;2024-01-30T14:08:43;4.80;99.90
4566;DHT22;2295;51.050;14.608;2024-01-30T14:11:19;4.90;99.90
4566;DHT22;2295;51.050;14.608;2024-01-30T14:13:48;4.80;99.90
4566;DHT22;2295;51.050;14.608;2024-01-30T14:16:16;4.70;99.90
4566;DHT22;2295;51.050;14.608;2024-01-30T14:18:49;4.60;99.90
4566;DHT22;2295;51.050;14.608;2024-01-30T14:21:18;4.50;99.90
4566;DHT22;2295;51.050;14.608;2024-01-30T14:23:46;4.50;99.90
4566;DHT22;2295;51.050;14.608;2024-01-30T14:26:15;4.40;99.90
4566;DHT22;2295;51.050;14.608;2024-01-30T14:28:44;4.40;99.90
4566;DHT22;2295;51.050;14.608;2024-01-30T14:31:15;4.40;99.90
4566;DHT22;2295;51.050;14.608;2024-01-30T14:33:48;4.30;99.90
4566;DHT22;2295;51.050;14.608;2024-01-30T14:36:18;4.30;99.90
4566;DHT22;2295;51.050;14.608;2024-01-30T14:38:50;4.20;99.90
4566;DHT22;2295;51.050;14.608;2024-01-30T14:41:21;4.10;99.90
4566;DHT22;2295;51.050;14.608;2024-01-30T14:43:51;4.00;99.90
4566;DHT22;2295;51.050;14.608;2024-01-30T14:46:19;4.00;99.90
4566;DHT22;2295;51.050;14.608;2024-01-30T14:48:52;3.90;99.90
4566;DHT22;2295;51.050;14.608;2024-01-30T14:51:21;3.80;99.90
4566;DHT22;2295;51.050;14.608;2024-01-30T14:53:53;3.80;99.90
4566;DHT22;2295;51.050;14.608;2024-01-30T14:56:22;3.70;99.90
4566;DHT22;2295;51.050;14.608;2024-01-30T14:58:50;3.70;99.90
4566;DHT22;2295;51.050;14.608;2024-01-30T15:01:19;3.60;99.90
4566;DHT22;2295;51.050;14.608;2024-01-30T15:03:47;3.50;99.90
4566;DHT22;2295;51.050;14.608;2024-01-30T15:06:20;3.40;99.90
4566;DHT22;2295;51.050;14.608;2024-01-30T15:08:51;3.40;99.90
4566;DHT22;2295;51.050;14.608;2024-01-30T15:11:20;3.30;99.90
4566;DHT22;2295;51.050;14.608;2024-01-30T15:13:51;3.20;99.90
4566;DHT22;2295;51.050;14.608;2024-01-30T15:16:20;3.10;99.90
4566;DHT22;2295;51.050;14.608;2024-01-30T15:18:49;3.00;99.90
4566;DHT22;2295;51.050;14.608;2024-01-30T15:21:22;3.00;99.90
4566;DHT22;2295;51.050;14.608;2024-01-30T15:23:52;2.90;99.90
4566;DHT22;2295;51.050;14.608;2024-01-30T15:26:27;2.80;99.90
4566;DHT22;2295;51.050;14.608;2024-01-30T15:28:56;2.80;99.90
4566;DHT22;2295;51.050;14.608;2024-01-30T15:31:27;2.70;99.90
4566;DHT22;2295;51.050;14.608;2024-01-30T15:33:55;2.70;99.90
4566;DHT22;2295;51.050;14.608;2024-01-30T15:36:29;2.70;99.90
4566;DHT22;2295;51.050;14.608;2024-01-30T15:38:58;2.60;99.90
4566;DHT22;2295;51.050;14.608;2024-01-30T15:41:26;2.60;99.90
4566;DHT22;2295;51.050;14.608;2024-01-30T15:43:55;2.50;99.90
4566;DHT22;2295;51.050;14.608;2024-01-30T15:46:23;2.50;99.90
4566;DHT22;2295;51.050;14.608;2024-01-30T15:48:51;2.40;99.90
4566;DHT22;2295;51.050;14.608;2024-01-30T15:51:20;2.40;99.90
4566;DHT22;2295;51.050;14.608;2024-01-30T15:53:50;2.40;99.90
4566;DHT22;2295;51.050;14.608;2024-01-30T15:56:18;2.30;99.90
4566;DHT22;2295;51.050;14.608;2024-01-30T15:58:47;2.30;99.90
4566;DHT22;2295;51.050;14.608;2024-01-30T16:01:21;2.20;99.90
4566;DHT22;2295;51.050;14.608;2024-01-30T16:03:50;2.20;99.90
4566;DHT22;2295;51.050;14.608;2024-01-30T16:06:19;2.20;99.90
4566;DHT22;2295;51.050;14.608;2024-01-30T16:08:49;2.10;99.90
4566;DHT22;2295;51.050;14.608;2024-01-30T16:11:20;2.10;99.90
4566;DHT22;2295;51.050;14.608;2024-01-30T16:13:49;2.10;99.90
4566;DHT22;2295;51.050;14.608;2024-01-30T16:16:19;2.00;99.90
4566;DHT22;2295;51.050;14.608;2024-01-30T16:18:48;2.00;99.90